createdAt,value
2023-03-14T00:01:18.797Z,3.60
2023-03-14T00:03:46.009Z,3.75
2023-03-14T00:06:14.862Z,3.40
2023-03-14T00:08:44.963Z,3.47
2023-03-14T00:11:18.050Z,3.15
2023-03-14T00:13:49.088Z,3.70
2023-03-14T00:16:16.223Z,3.30
2023-03-14T00:18:43.231Z,3.17
2023-03-14T00:21:11.738Z,3.95
2023-03-14T00:23:40.960Z,3.25
2023-03-14T00:26:10.997Z,3.13
2023-03-14T00:28:39.254Z,3.05
2023-03-14T00:31:10.851Z,3.03
2023-03-14T00:33:37.988Z,2.30
2023-03-14T00:36:10.185Z,1.77
2023-03-14T00:38:39.520Z,2.58
2023-03-14T00:41:08.344Z,2.75
2023-03-14T00:43:35.659Z,2.60
2023-03-14T00:46:03.227Z,3.03
2023-03-14T00:48:30.823Z,2.75
2023-03-14T00:50:58.021Z,2.50
2023-03-14T00:53:25.839Z,3.00
2023-03-14T00:55:52.857Z,2.45
2023-03-14T00:58:19.998Z,1.98
2023-03-14T01:00:47.879Z,2.50
2023-03-14T01:03:16.017Z,2.47
2023-03-14T01:05:43.388Z,1.70
2023-03-14T01:08:10.681Z,1.70
2023-03-14T01:10:41.775Z,1.60
2023-03-14T01:13:09.692Z,1.60
2023-03-14T01:15:38.733Z,1.85
2023-03-14T01:18:05.983Z,2.33
2023-03-14T01:20:33.491Z,1.88
2023-03-14T01:23:00.383Z,1.48
2023-03-14T01:25:28.099Z,1.75
2023-03-14T01:27:55.756Z,1.80
2023-03-14T01:30:23.216Z,1.25
2023-03-14T01:32:50.346Z,1.42
2023-03-14T01:35:18.840Z,1.50
2023-03-14T01:37:45.916Z,1.50
2023-03-14T01:40:18.886Z,1.77
2023-03-14T01:42:57.356Z,1.75
2023-03-14T01:46:01.837Z,1.90
2023-03-14T01:48:44.026Z,1.83
2023-03-14T01:51:16.490Z,1.77
2023-03-14T01:53:44.715Z,1.83
2023-03-14T01:56:14.370Z,2.30
2023-03-14T01:58:45.717Z,1.92
2023-03-14T02:01:14.948Z,2.38
2023-03-14T02:03:49.768Z,2.03
2023-03-14T02:06:20.492Z,1.60
2023-03-14T02:08:50.620Z,1.58
2023-03-14T02:11:22.080Z,1.95
2023-03-14T02:13:58.867Z,1.77
2023-03-14T02:16:33.503Z,2.00
2023-03-14T02:19:33.556Z,1.90
2023-03-14T02:22:23.439Z,1.15
2023-03-14T02:25:10.409Z,2.00
2023-03-14T02:27:37.755Z,1.50
2023-03-14T02:30:15.866Z,2.05
2023-03-14T02:32:51.480Z,2.33
2023-03-14T02:35:25.618Z,2.10
2023-03-14T02:38:06.037Z,1.98
2023-03-14T02:40:37.578Z,2.20
2023-03-14T02:43:04.960Z,1.95
2023-03-14T02:45:38.156Z,1.80
2023-03-14T02:48:13.819Z,2.03
2023-03-14T02:50:42.093Z,2.47
2023-03-14T02:53:10.470Z,1.88
2023-03-14T02:55:37.838Z,2.40
2023-03-14T02:58:11.170Z,1.92
2023-03-14T03:00:38.266Z,2.30
2023-03-14T03:03:11.772Z,2.30
2023-03-14T03:05:39.116Z,2.20
2023-03-14T03:08:07.340Z,2.15
2023-03-14T03:10:34.488Z,2.25
2023-03-14T03:13:01.900Z,2.55
2023-03-14T03:15:29.195Z,2.20
2023-03-14T03:17:57.042Z,1.75
2023-03-14T03:20:24.572Z,1.90
2023-03-14T03:22:51.937Z,2.20
2023-03-14T03:25:19.439Z,2.35
2023-03-14T03:27:46.895Z,2.03
2023-03-14T03:30:18.091Z,1.90
2023-03-14T03:32:45.423Z,2.17
2023-03-14T03:35:13.416Z,1.60
2023-03-14T03:37:42.350Z,2.17
2023-03-14T03:40:10.792Z,2.17
2023-03-14T03:42:38.190Z,1.83
2023-03-14T03:45:09.021Z,2.03
2023-03-14T03:47:40.265Z,2.10
2023-03-14T03:50:08.192Z,1.95
2023-03-14T03:52:35.383Z,2.72
2023-03-14T03:55:02.355Z,1.90
2023-03-14T03:57:29.602Z,2.55
2023-03-14T03:59:57.485Z,3.90
2023-03-14T04:02:24.440Z,2.30
2023-03-14T04:04:52.157Z,2.03
2023-03-14T04:07:19.612Z,2.40
2023-03-14T04:09:46.705Z,2.28
2023-03-14T04:12:46.038Z,2.25
2023-03-14T04:15:17.916Z,1.90
2023-03-14T04:17:48.238Z,2.40
2023-03-14T04:20:16.156Z,1.70
2023-03-14T04:22:44.635Z,1.77
2023-03-14T04:25:12.303Z,1.98
2023-03-14T04:27:44.470Z,1.98
2023-03-14T04:30:19.339Z,2.45
2023-03-14T04:33:15.370Z,2.15
2023-03-14T04:35:48.236Z,1.90
2023-03-14T04:38:16.885Z,2.25
2023-03-14T04:40:46.129Z,2.10
2023-03-14T04:43:14.468Z,2.10
2023-03-14T04:45:51.538Z,1.70
2023-03-14T04:48:18.839Z,2.25
2023-03-14T04:50:47.477Z,1.88
2023-03-14T04:53:15.447Z,2.05
2023-03-14T04:55:50.409Z,2.30
2023-03-14T04:58:18.647Z,2.08
2023-03-14T05:00:48.563Z,1.70
2023-03-14T05:03:33.681Z,2.15
2023-03-14T05:06:09.736Z,1.88
2023-03-14T05:08:59.619Z,2.13
2023-03-14T05:11:52.732Z,2.25
2023-03-14T05:14:58.029Z,1.70
2023-03-14T05:20:28.155Z,3.08
2023-03-14T05:23:18.342Z,2.25
2023-03-14T05:26:08.172Z,2.45
2023-03-14T05:28:35.241Z,2.60
2023-03-14T05:31:24.737Z,2.95
2023-03-14T05:33:59.616Z,2.80
2023-03-14T05:36:49.453Z,3.13
2023-03-14T05:39:33.600Z,3.28
2023-03-14T05:42:20.687Z,3.55
2023-03-14T05:45:08.399Z,2.92
2023-03-14T05:47:57.323Z,3.90
2023-03-14T05:50:55.433Z,4.03
2023-03-14T05:53:36.255Z,3.47
2023-03-14T05:56:21.730Z,3.83
2023-03-14T05:59:11.818Z,4.38
2023-03-14T06:01:44.863Z,4.20
2023-03-14T06:04:17.041Z,4.60
2023-03-14T06:06:48.541Z,5.10
2023-03-14T06:09:16.708Z,4.95
2023-03-14T06:11:44.249Z,5.40
2023-03-14T06:14:12.265Z,5.30
2023-03-14T06:16:42.787Z,4.95
2023-03-14T06:19:10.454Z,5.50
2023-03-14T06:21:38.116Z,5.55
2023-03-14T06:24:05.199Z,4.93
2023-03-14T06:26:36.917Z,5.82
2023-03-14T06:29:04.324Z,5.60
2023-03-14T06:31:32.498Z,6.45
2023-03-14T06:34:03.178Z,6.90
2023-03-14T06:36:32.363Z,6.53
2023-03-14T06:38:59.794Z,7.00
2023-03-14T06:41:28.479Z,7.53
2023-03-14T06:43:56.677Z,7.40
2023-03-14T06:46:24.705Z,6.90
2023-03-14T06:48:51.660Z,4.60
2023-03-14T06:51:18.699Z,4.72
2023-03-14T06:53:46.058Z,2.50
2023-03-14T06:56:15.928Z,2.30
2023-03-14T06:58:42.962Z,1.10
2023-03-14T07:01:28.453Z,1.60
2023-03-14T07:04:01.915Z,1.10
2023-03-14T07:06:30.981Z,1.00
2023-03-14T07:08:58.907Z,0.80
2023-03-14T07:11:27.692Z,0.60
2023-03-14T07:13:54.834Z,0.73
2023-03-14T07:16:22.018Z,0.80
2023-03-14T07:18:50.276Z,0.98
2023-03-14T07:21:17.818Z,1.33
2023-03-14T07:23:45.016Z,1.10
2023-03-14T07:26:13.913Z,1.35
2023-03-14T07:28:46.635Z,1.23
2023-03-14T07:31:17.975Z,1.63
2023-03-14T07:33:45.057Z,1.77
2023-03-14T07:36:12.602Z,1.45
2023-03-14T07:38:43.326Z,1.90
2023-03-14T07:41:10.751Z,0.90
2023-03-14T07:43:44.019Z,0.90
2023-03-14T07:46:11.257Z,0.98
2023-03-14T07:48:38.325Z,0.80
2023-03-14T07:51:05.623Z,0.65
2023-03-14T07:53:32.516Z,0.70
2023-03-14T07:55:59.561Z,0.45
2023-03-14T07:58:26.761Z,0.93
2023-03-14T08:00:54.118Z,0.57
2023-03-14T08:03:21.066Z,0.82
2023-03-14T08:05:52.007Z,0.80
2023-03-14T08:08:19.527Z,0.70
2023-03-14T08:10:47.359Z,0.98
2023-03-14T08:13:14.414Z,0.80
2023-03-14T08:15:41.442Z,1.08
2023-03-14T08:18:08.484Z,1.10
2023-03-14T08:20:37.512Z,1.15
2023-03-14T08:23:04.774Z,1.80
2023-03-14T08:25:31.885Z,0.90
2023-03-14T08:27:58.997Z,1.25
2023-03-14T08:30:26.381Z,0.90
2023-03-14T08:32:53.580Z,0.90
2023-03-14T08:35:21.889Z,1.23
2023-03-14T08:37:49.078Z,0.30
2023-03-14T08:40:18.020Z,1.27
2023-03-14T08:42:45.322Z,0.80
2023-03-14T08:45:14.462Z,0.85
2023-03-14T08:47:41.462Z,0.47
2023-03-14T08:50:10.129Z,0.70
2023-03-14T08:52:38.858Z,0.50
2023-03-14T08:55:06.234Z,0.65
2023-03-14T08:57:32.991Z,0.70
2023-03-14T08:59:59.967Z,0.75
2023-03-14T09:02:27.356Z,1.10
2023-03-14T09:04:54.372Z,1.10
2023-03-14T09:07:21.333Z,1.40
2023-03-14T09:09:48.311Z,1.08
2023-03-14T09:12:15.304Z,1.55
2023-03-14T09:14:42.297Z,1.35
2023-03-14T09:17:09.346Z,1.60
2023-03-14T09:19:36.346Z,1.08
2023-03-14T09:22:04.110Z,1.40
2023-03-14T09:24:31.316Z,1.67
2023-03-14T09:26:58.367Z,1.27
2023-03-14T09:29:25.705Z,1.52
2023-03-14T09:31:52.802Z,2.78
2023-03-14T09:34:20.214Z,1.88
2023-03-14T09:36:47.222Z,1.90
2023-03-14T09:39:14.262Z,2.53
2023-03-14T09:41:44.526Z,2.00
2023-03-14T09:44:16.589Z,1.67
2023-03-14T09:46:48.994Z,1.77
2023-03-14T09:51:50.670Z,2.05
2023-03-14T09:54:54.685Z,2.60
2023-03-14T09:57:25.135Z,2.28
2023-03-14T09:59:55.687Z,2.92
2023-03-14T10:02:35.850Z,2.28
2023-03-14T10:05:07.255Z,2.42
2023-03-14T10:07:34.687Z,2.25
2023-03-14T10:10:01.850Z,2.60
2023-03-14T10:12:33.861Z,2.42
2023-03-14T10:15:09.660Z,2.40
2023-03-14T10:17:47.661Z,2.80
2023-03-14T10:20:38.840Z,2.38
2023-03-14T10:23:22.135Z,2.80
2023-03-14T10:26:09.620Z,3.17
2023-03-14T10:28:50.137Z,2.15
2023-03-14T10:31:17.146Z,3.10
2023-03-14T10:34:05.129Z,2.53
2023-03-14T10:36:36.425Z,3.95
2023-03-14T10:39:25.886Z,2.80
2023-03-14T10:42:16.178Z,3.08
2023-03-14T10:44:43.942Z,3.22
2023-03-14T10:47:19.338Z,3.60
2023-03-14T10:49:46.502Z,3.38
2023-03-14T10:52:50.917Z,4.25
2023-03-14T10:55:13.393Z,2.70
2023-03-14T10:57:43.888Z,2.88
2023-03-14T11:00:18.363Z,3.22
2023-03-14T11:03:03.978Z,3.15
2023-03-14T11:05:57.605Z,2.63
2023-03-14T11:08:48.554Z,4.00
2023-03-14T11:11:22.944Z,2.92
2023-03-14T11:13:58.828Z,2.92
2023-03-14T11:16:34.882Z,3.42
2023-03-14T11:19:15.581Z,3.40
2023-03-14T11:22:03.344Z,3.15
2023-03-14T11:25:06.437Z,3.22
2023-03-14T11:27:44.672Z,3.20
2023-03-14T11:30:52.722Z,3.25
2023-03-14T11:33:39.565Z,3.47
2023-03-14T11:36:07.754Z,3.30
2023-03-14T11:38:34.663Z,2.85
2023-03-14T11:41:02.377Z,3.38
2023-03-14T11:43:41.409Z,3.45
2023-03-14T11:46:36.273Z,2.97
2023-03-14T11:49:20.274Z,2.63
2023-03-14T11:51:56.559Z,2.58
2023-03-14T11:54:33.032Z,2.38
2023-03-14T11:57:04.835Z,2.22
2023-03-14T11:59:54.049Z,2.92
2023-03-14T12:02:30.872Z,2.67
2023-03-14T12:05:17.118Z,2.88
2023-03-14T12:07:46.956Z,2.42
2023-03-14T12:10:14.000Z,2.28
2023-03-14T12:12:41.598Z,2.03
2023-03-14T12:15:21.582Z,2.47
2023-03-14T12:17:56.963Z,2.28
2023-03-14T12:20:27.810Z,2.30
2023-03-14T12:22:58.029Z,2.28
2023-03-14T12:25:31.160Z,2.50
2023-03-14T12:27:58.066Z,2.47
2023-03-14T12:30:31.311Z,1.85
2023-03-14T12:33:10.735Z,1.85
2023-03-14T12:35:46.057Z,2.10
2023-03-14T12:38:37.006Z,2.10
2023-03-14T12:41:17.530Z,2.45
2023-03-14T12:43:44.962Z,1.92
2023-03-14T12:46:27.967Z,2.33
2023-03-14T12:49:09.917Z,2.10
2023-03-14T12:51:44.966Z,1.98
2023-03-14T12:54:18.405Z,2.22
2023-03-14T12:56:45.320Z,1.95
2023-03-14T12:59:30.823Z,1.70
2023-03-14T13:02:04.014Z,1.58
2023-03-14T13:04:45.504Z,1.88
2023-03-14T13:07:31.751Z,1.30
2023-03-14T13:13:04.182Z,1.50
2023-03-14T13:15:41.326Z,1.65
2023-03-14T13:18:45.447Z,1.60
2023-03-14T13:21:28.466Z,1.42
2023-03-14T13:24:03.592Z,1.70
2023-03-14T13:26:43.462Z,1.80
2023-03-14T13:29:27.177Z,1.40
2023-03-14T13:31:59.561Z,1.48
2023-03-14T13:34:32.678Z,1.60
2023-03-14T13:37:00.397Z,1.52
2023-03-14T13:39:30.253Z,1.25
2023-03-14T13:42:02.042Z,1.80
2023-03-14T13:44:33.485Z,1.40
2023-03-14T13:47:03.133Z,1.40
2023-03-14T13:49:36.730Z,1.50
2023-03-14T13:52:22.732Z,1.65
2023-03-14T13:54:55.190Z,1.83
2023-03-14T13:57:22.543Z,1.60
2023-03-14T14:00:10.331Z,1.70
2023-03-14T14:02:41.059Z,1.15
2023-03-14T14:05:11.389Z,1.70
2023-03-14T14:07:39.449Z,1.35
2023-03-14T14:10:07.358Z,2.60
2023-03-14T14:12:44.838Z,2.05
2023-03-14T14:15:25.290Z,1.90
2023-03-14T14:18:09.928Z,1.75
2023-03-14T14:20:48.094Z,1.98
2023-03-14T14:23:29.859Z,2.13
2023-03-14T14:25:59.232Z,1.77
2023-03-14T14:28:36.135Z,1.63
2023-03-14T14:31:06.816Z,1.80
2023-03-14T14:33:45.816Z,1.55
2023-03-14T14:36:44.352Z,1.30
2023-03-14T14:39:11.637Z,1.77
2023-03-14T14:41:42.766Z,1.70
2023-03-14T14:44:14.909Z,1.60
2023-03-14T14:46:43.215Z,1.65
2023-03-14T14:49:16.479Z,1.65
2023-03-14T14:51:48.565Z,1.40
2023-03-14T14:54:32.870Z,1.08
2023-03-14T14:57:05.213Z,1.60
2023-03-14T14:59:32.831Z,0.98
2023-03-14T15:02:02.233Z,1.30
2023-03-14T15:04:32.434Z,0.95
2023-03-14T15:06:59.837Z,1.30
2023-03-14T15:09:27.081Z,1.60
2023-03-14T15:11:54.048Z,1.00
2023-03-14T15:14:21.503Z,1.40
2023-03-14T15:16:49.932Z,1.38
2023-03-14T15:19:26.073Z,1.98
2023-03-14T15:21:54.256Z,1.80
2023-03-14T15:24:22.180Z,1.60
2023-03-14T15:26:49.570Z,1.77
2023-03-14T15:29:16.657Z,1.58
2023-03-14T15:31:45.008Z,1.80
2023-03-14T15:34:12.606Z,1.30
2023-03-14T15:36:40.130Z,1.63
2023-03-14T15:39:08.428Z,1.50
2023-03-14T15:41:36.422Z,1.38
2023-03-14T15:44:03.929Z,1.50
2023-03-14T15:46:31.950Z,1.45
2023-03-14T15:48:58.972Z,1.48
2023-03-14T15:51:25.942Z,1.45
2023-03-14T15:53:53.126Z,1.52
2023-03-14T15:56:21.821Z,1.17
2023-03-14T15:58:49.439Z,1.25
2023-03-14T16:01:17.740Z,1.73
2023-03-14T16:03:50.251Z,1.08
2023-03-14T16:08:45.513Z,1.42
2023-03-14T16:11:15.636Z,1.70
2023-03-14T16:13:43.021Z,1.40
2023-03-14T16:16:10.857Z,1.70
2023-03-14T16:18:39.374Z,1.80
2023-03-14T16:21:18.929Z,1.42
2023-03-14T16:23:46.263Z,1.75
2023-03-14T16:26:18.100Z,1.65
2023-03-14T16:28:46.351Z,1.85
2023-03-14T16:31:17.007Z,1.75
2023-03-14T16:33:44.905Z,2.22
2023-03-14T16:36:13.611Z,2.55
2023-03-14T16:38:43.090Z,2.10
2023-03-14T16:41:20.524Z,2.10
2023-03-14T16:43:52.176Z,1.80
2023-03-14T16:46:22.328Z,2.47
2023-03-14T16:48:50.171Z,3.50
2023-03-14T16:51:17.593Z,2.58
2023-03-14T16:53:45.550Z,1.90
2023-03-14T16:56:13.076Z,1.58
2023-03-14T16:58:40.286Z,2.53
2023-03-14T17:01:12.731Z,2.33
2023-03-14T17:06:10.538Z,2.38
2023-03-14T17:08:37.595Z,2.20
2023-03-14T17:11:04.699Z,2.05
2023-03-14T17:13:31.578Z,2.80
2023-03-14T17:16:00.075Z,3.00
2023-03-14T17:18:28.482Z,2.30
2023-03-14T17:20:56.459Z,3.95
2023-03-14T17:23:29.424Z,3.45
2023-03-14T17:25:56.533Z,2.97
2023-03-14T17:28:25.076Z,1.73
2023-03-14T17:31:05.076Z,1.40
2023-03-14T17:33:32.397Z,1.40
2023-03-14T17:35:59.555Z,2.05
2023-03-14T17:38:27.432Z,1.63
2023-03-14T17:40:54.579Z,1.60
2023-03-14T17:43:21.721Z,1.80
2023-03-14T17:45:56.605Z,1.70
2023-03-14T17:48:23.635Z,1.58
2023-03-14T17:50:51.063Z,1.13
2023-03-14T17:53:19.400Z,1.40
2023-03-14T17:55:50.313Z,1.15
2023-03-14T17:58:17.546Z,1.30
2023-03-14T18:00:44.588Z,2.08
2023-03-14T18:03:11.989Z,1.80
2023-03-14T18:05:40.204Z,1.75
2023-03-14T18:08:10.518Z,1.75
2023-03-14T18:10:37.849Z,1.67
2023-03-14T18:13:04.881Z,1.58
2023-03-14T18:15:33.868Z,1.60
2023-03-14T18:18:02.138Z,2.45
2023-03-14T18:20:29.652Z,1.63
2023-03-14T18:22:56.873Z,1.65
2023-03-14T18:25:23.952Z,1.63
2023-03-14T18:27:50.946Z,2.20
2023-03-14T18:30:20.492Z,2.22
2023-03-14T18:32:47.542Z,2.45
2023-03-14T18:35:14.697Z,2.22
2023-03-14T18:37:42.010Z,2.38
2023-03-14T18:40:10.636Z,2.47
2023-03-14T18:42:37.782Z,2.40
2023-03-14T18:45:05.603Z,2.35
2023-03-14T18:47:36.533Z,2.25
2023-03-14T18:50:08.548Z,3.15
2023-03-14T18:52:36.108Z,3.35
2023-03-14T18:55:06.754Z,3.60
2023-03-14T18:57:33.834Z,4.05
2023-03-14T19:00:01.341Z,4.32
2023-03-14T19:02:28.440Z,4.13
2023-03-14T19:04:55.692Z,3.58
2023-03-14T19:07:23.610Z,3.83
2023-03-14T19:09:50.802Z,3.50
2023-03-14T19:12:18.866Z,2.38
2023-03-14T19:14:46.045Z,2.63
2023-03-14T19:17:13.073Z,3.15
2023-03-14T19:19:40.217Z,2.03
2023-03-14T19:22:07.208Z,2.88
2023-03-14T19:24:35.241Z,2.38
2023-03-14T19:27:03.670Z,2.70
2023-03-14T19:29:32.192Z,2.45
2023-03-14T19:31:59.556Z,3.83
2023-03-14T19:34:26.763Z,3.30
2023-03-14T19:36:53.837Z,3.42
2023-03-14T19:39:21.193Z,4.18
2023-03-14T19:41:48.858Z,4.20
2023-03-14T19:44:16.000Z,3.65
2023-03-14T19:46:43.426Z,3.97
2023-03-14T19:49:11.831Z,4.82
2023-03-14T19:51:38.961Z,6.72
2023-03-14T19:54:06.028Z,6.97
2023-03-14T19:56:34.664Z,6.78
2023-03-14T19:59:04.701Z,6.93
2023-03-14T20:01:32.897Z,7.50
2023-03-14T20:04:04.972Z,7.65
2023-03-14T20:06:32.598Z,6.63
2023-03-14T20:09:02.751Z,7.75
2023-03-14T20:11:30.305Z,5.03
2023-03-14T20:13:57.367Z,4.03
2023-03-14T20:16:24.385Z,3.92
2023-03-14T20:18:53.510Z,4.38
2023-03-14T20:21:21.170Z,3.70
2023-03-14T20:23:50.036Z,3.50
2023-03-14T20:26:16.945Z,3.22
2023-03-14T20:28:46.206Z,3.25
2023-03-14T20:31:15.388Z,3.42
2023-03-14T20:33:45.765Z,2.90
2023-03-14T20:36:13.077Z,2.90
2023-03-14T20:38:40.474Z,2.67
2023-03-14T20:41:09.462Z,2.58
2023-03-14T20:43:36.881Z,2.75
2023-03-14T20:46:06.083Z,2.30
2023-03-14T20:48:33.523Z,2.67
2023-03-14T20:51:01.610Z,2.75
2023-03-14T20:53:28.738Z,3.22
2023-03-14T20:55:57.335Z,3.58
2023-03-14T20:58:25.700Z,3.63
2023-03-14T21:00:56.285Z,2.97
2023-03-14T21:03:24.246Z,2.05
2023-03-14T21:05:52.471Z,2.20
2023-03-14T21:08:23.248Z,1.70
2023-03-14T21:10:52.347Z,2.40
2023-03-14T21:13:20.062Z,1.83
2023-03-14T21:15:47.742Z,1.83
2023-03-14T21:18:15.581Z,1.27
2023-03-14T21:20:43.830Z,2.08
2023-03-14T21:23:16.481Z,1.60
2023-03-14T21:25:45.021Z,1.60
2023-03-14T21:28:13.091Z,1.45
2023-03-14T21:30:41.430Z,1.42
2023-03-14T21:33:08.720Z,1.00
2023-03-14T21:35:35.777Z,1.23
2023-03-14T21:38:03.504Z,1.05
2023-03-14T21:40:30.441Z,1.15
2023-03-14T21:42:57.414Z,0.95
2023-03-14T21:45:26.151Z,1.20
2023-03-14T21:47:57.456Z,1.00
2023-03-14T21:50:25.888Z,1.15
2023-03-14T21:52:56.878Z,1.00
2023-03-14T21:55:25.694Z,1.10
2023-03-14T21:57:54.794Z,0.95
2023-03-14T22:00:23.274Z,1.30
2023-03-14T22:05:46.347Z,1.23
2023-03-14T22:08:14.675Z,0.85
2023-03-14T22:10:46.440Z,0.93
2023-03-14T22:13:14.395Z,0.90
2023-03-14T22:15:45.562Z,1.70
2023-03-14T22:18:13.824Z,0.80
2023-03-14T22:20:41.418Z,1.08
2023-03-14T22:23:08.941Z,0.90
2023-03-14T22:25:35.869Z,1.00
2023-03-14T22:28:02.816Z,0.90
2023-03-14T22:30:30.224Z,1.10
2023-03-14T22:32:57.458Z,0.95
2023-03-14T22:35:24.872Z,1.33
2023-03-14T22:37:51.770Z,1.42
2023-03-14T22:40:19.237Z,1.45
2023-03-14T22:42:48.427Z,0.90
2023-03-14T22:45:16.234Z,0.98
2023-03-14T22:47:43.194Z,1.10
2023-03-14T22:50:11.042Z,0.93
2023-03-14T22:52:38.304Z,0.80
2023-03-14T22:55:05.870Z,0.85
2023-03-14T22:57:32.805Z,0.80
2023-03-14T22:59:59.739Z,0.82
2023-03-14T23:02:26.682Z,1.00
2023-03-14T23:04:53.881Z,0.40
2023-03-14T23:07:20.881Z,0.40
2023-03-14T23:09:47.982Z,0.60
2023-03-14T23:12:17.831Z,0.70
2023-03-14T23:14:44.751Z,0.50
2023-03-14T23:17:12.955Z,0.70
2023-03-14T23:19:39.916Z,0.90
2023-03-14T23:22:09.899Z,0.68
2023-03-14T23:24:37.032Z,0.60
2023-03-14T23:27:05.650Z,0.30
2023-03-14T23:29:32.500Z,0.32
2023-03-14T23:31:59.447Z,0.20
2023-03-14T23:34:30.686Z,0.30
2023-03-14T23:37:00.095Z,0.20
2023-03-14T23:39:27.340Z,0.40
2023-03-14T23:41:54.230Z,0.40
2023-03-14T23:44:23.232Z,0.50
2023-03-14T23:46:50.121Z,1.17
2023-03-14T23:49:17.267Z,1.77
2023-03-14T23:51:44.260Z,1.40
2023-03-14T23:54:11.157Z,2.03
2023-03-14T23:56:38.709Z,1.80
2023-03-14T23:59:05.653Z,1.73
